Detalii statie FIRST FARMS FAUREI [00001992]

Toti senzorii

Date Temperatura solului [C]Precipitatii [mm]Voltaj baterie [mV]Leaf Wetness [Min]HC Air temperature [C]HC Relative humidity [%]Punctul de roua [C]
medieminmaxsumaultimatimpmedieminmaxmediemediemin
2018-02-23 13:00:00 1.3 1.2 1.4 0 7226 0.32 0.14 0.49 0 0 0
2018-02-23 14:00:00 1.4 1.3 1.7 0 7226 0.64 0.37 1.01 0 0 0
2018-02-23 15:00:00 1.6 1.5 1.8 0 7158 0.97 0.74 1.2 0 0 0
2018-02-23 16:00:00 1.8 1.7 2 0 7138 0.78 0.67 0.84 0 0 0
2018-02-23 17:00:00 1.9 1.8 2.1 0.4 7108 0.7 0.6 0.82 0 0 0
2018-02-23 18:00:00 1.9 1.8 2.1 0.2 6962 0.49 0.32 0.66 0 0 0
2018-02-23 19:00:00 1.9 1.8 2.1 0 6904 0.12 -0.07 0.32 0 0 0
2018-02-23 20:00:00 1.9 1.8 2 0 6874 -0.34 -0.52 -0.09 0 0 0
2018-02-23 21:00:00 1.8 1.8 2 0 6864 -0.41 -0.53 -0.36 0 0 0
2018-02-23 22:00:00 1.7 1.7 1.9 0 6864 -0.53 -0.59 -0.49 0 0 0
2018-02-23 23:00:00 1.7 1.6 1.9 0 6826 -0.62 -0.76 -0.55 0 0 0
2018-02-24 00:00:00 1.6 1.5 1.8 0 6826 -0.6 -0.75 -0.45 0 0 0
2018-02-24 01:00:00 1.5 1.5 1.6 0 6806 -0.62 -0.76 -0.5 0 0 0
2018-02-24 02:00:00 1.5 1.5 1.7 0 6806 -0.56 -0.67 -0.45 0 0 0
2018-02-24 03:00:00 1.6 1.5 1.7 0 6776 -0.57 -0.71 -0.47 0 0 0
2018-02-24 04:00:00 1.4 1.2 1.7 0 6786 -0.47 -0.59 -0.31 0 0 0
2018-02-24 05:00:00 1.4 1.4 1.6 0 6786 -0.45 -0.52 -0.39 0 0 0
2018-02-24 06:00:00 1.4 1.3 1.5 0 6766 -0.47 -0.52 -0.42 0 0 0
2018-02-24 07:00:00 1.4 1.3 1.6 0 6766 -0.42 -0.45 -0.38 0 0 0
2018-02-24 08:00:00 1.3 1.3 1.4 0 6756 -0.3 -0.36 -0.24 0 0 0
2018-02-24 09:00:00 1.3 1.3 1.4 0 6786 -0.19 -0.27 -0.11 0 0 0
2018-02-24 10:00:00 1.3 1.2 1.4 0 6834 -0.22 -0.35 -0.12 0 0 0
2018-02-24 11:00:00 1.3 1.2 1.4 0 7088 -0.31 -0.54 -0.08 0 0 0
2018-02-24 12:00:00 1.3 1.2 1.5 0 7206 -0.56 -0.77 -0.42 0 0 0
2018-02-24 13:00:00 1.3 1.3 1.4 0 7206 -0.83 -1.02 -0.63 0 0 0
2018-02-24 14:00:00 1.3 1.3 1.4 0 7206 -1.1 -1.26 -0.97 0 0 0
2018-02-24 15:00:00 1.4 1.3 1.5 0 7206 -1.19 -1.36 -1 0 0 0
2018-02-24 16:00:00 1.4 1.4 1.5 0 7176 -1.65 -1.95 -1.37 0 0 0
2018-02-24 17:00:00 1.4 1.3 1.6 0 7050 -2.19 -2.5 -2 0 0 0
2018-02-24 18:00:00 1.4 1.3 1.5 0 6952 -2.84 -3.14 -2.58 0 0 0
2018-02-24 19:00:00 1.2 1.2 1.4 0 6922 -3.46 -3.67 -3.18 0 0 0
2018-02-24 20:00:00 1.2 1.1 1.4 0 6864 -3.7 -3.8 -3.63 0 0 0
2018-02-24 21:00:00 1.2 1.1 1.3 0 6864 -3.85 -3.93 -3.74 0 0 0
2018-02-24 22:00:00 1.1 1.1 1.2 0 6844 -3.82 -3.86 -3.78 0 0 0
2018-02-24 23:00:00 1.1 1.1 1.2 0 6806 -3.89 -3.99 -3.84 0 0 0
2018-02-25 00:00:00 1.1 1.1 1.2 0 6796 -4.06 -4.21 -4 0 0 0
2018-02-25 01:00:00 1 0.9 1.3 0 6776 -4.36 -4.52 -4.22 0 0 0
2018-02-25 02:00:00 1 0.9 1.1 0 6786 -4.84 -5.02 -4.59 0 0 0
2018-02-25 03:00:00 1 0.9 1.1 0 6756 -5.16 -5.35 -5.03 0 0 0
2018-02-25 04:00:00 1 0.9 1.1 0 6756 -5.62 -5.9 -5.43 0 0 0
2018-02-25 05:00:00 1 0.9 1.1 0 6748 -6.22 -6.47 -5.92 0 0 0
2018-02-25 06:00:00 0.9 0.9 1 0 6738 -6.51 -6.55 -6.47 0 0 0
2018-02-25 07:00:00 0.9 0.9 1 0 6728 -6.46 -6.58 -6.42 0 0 0
2018-02-25 08:00:00 0.8 0.7 0.9 0 6756 -6.61 -6.73 -6.43 0 0 0
2018-02-25 09:00:00 0.8 0.8 1 0 7236 -6.04 -6.38 -5.59 0 0 0
2018-02-25 10:00:00 0.8 0.7 0.9 0 7206 -5.36 -5.85 -4.88 0 0 0
2018-02-25 11:00:00 0.8 0.7 0.9 0.2 7236 -4.44 -5.05 -4.15 0 0 0
2018-02-25 12:00:00 0.7 0.7 0.8 0 7206 -4.06 -4.39 -3.76 0 0 0